createdAt,value
2019-02-09T00:01:40.234Z,3.77
2019-02-09T00:04:08.826Z,3.93
2019-02-09T00:06:37.402Z,5.53
2019-02-09T00:09:07.801Z,7.33
2019-02-09T00:11:36.397Z,2.80
2019-02-09T00:14:04.977Z,4.23
2019-02-09T00:16:33.522Z,4.33
2019-02-09T00:19:03.682Z,3.97
2019-02-09T00:21:32.445Z,3.23
2019-02-09T00:24:00.989Z,6.17
2019-02-09T00:26:29.521Z,3.07
2019-02-09T00:28:58.078Z,2.80
2019-02-09T00:31:26.617Z,6.00
2019-02-09T00:33:55.176Z,2.83
2019-02-09T00:36:23.789Z,4.63
2019-02-09T00:38:52.323Z,4.73
2019-02-09T00:41:20.866Z,4.90
2019-02-09T00:43:49.409Z,2.73
2019-02-09T00:46:17.953Z,2.90
2019-02-09T00:48:46.558Z,4.53
2019-02-09T00:51:15.138Z,3.00
2019-02-09T00:53:43.673Z,2.70
2019-02-09T00:56:12.220Z,3.00
2019-02-09T00:58:40.742Z,3.20
2019-02-09T01:01:09.273Z,2.93
2019-02-09T01:03:37.825Z,3.67
2019-02-09T01:06:06.388Z,3.20
2019-02-09T01:08:34.917Z,3.23
2019-02-09T01:11:03.468Z,2.83
2019-02-09T01:13:32.002Z,3.90
2019-02-09T01:16:00.530Z,3.37
2019-02-09T01:18:29.092Z,4.43
2019-02-09T01:20:57.626Z,6.60
2019-02-09T01:23:26.163Z,2.93
2019-02-09T01:25:54.735Z,6.90
2019-02-09T01:28:23.262Z,3.00
2019-02-09T01:30:51.801Z,3.23
2019-02-09T01:33:20.346Z,4.33
2019-02-09T01:35:48.869Z,4.13
2019-02-09T01:38:17.401Z,6.23
2019-02-09T01:40:45.962Z,3.03
2019-02-09T01:43:14.514Z,3.00
2019-02-09T01:45:43.041Z,4.43
2019-02-09T01:48:11.609Z,2.67
2019-02-09T01:50:40.144Z,3.27
2019-02-09T01:53:08.674Z,2.50
2019-02-09T01:55:37.291Z,3.97
2019-02-09T01:58:06.027Z,2.40
2019-02-09T02:00:34.591Z,5.97
2019-02-09T02:03:03.141Z,4.33
2019-02-09T02:05:31.667Z,4.07
2019-02-09T02:08:00.201Z,6.63
2019-02-09T02:10:29.939Z,3.50
2019-02-09T02:12:58.465Z,4.63
2019-02-09T02:15:27.421Z,2.40
2019-02-09T02:17:55.965Z,5.93
2019-02-09T02:20:24.985Z,4.13
2019-02-09T02:22:53.549Z,5.83
2019-02-09T02:25:23.653Z,3.40
2019-02-09T02:27:52.422Z,1.73
2019-02-09T02:30:23.164Z,5.33
2019-02-09T02:32:51.934Z,2.50
2019-02-09T02:35:20.530Z,4.10
2019-02-09T02:37:49.114Z,5.37
2019-02-09T02:40:17.934Z,2.00
2019-02-09T02:42:46.482Z,2.77
2019-02-09T02:45:15.101Z,1.70
2019-02-09T02:47:43.662Z,5.90
2019-02-09T02:50:13.289Z,3.50
2019-02-09T02:52:41.968Z,2.40
2019-02-09T02:55:11.278Z,4.30
2019-02-09T02:57:39.826Z,3.47
2019-02-09T03:00:09.386Z,2.00
2019-02-09T03:02:37.918Z,1.27
2019-02-09T03:05:07.449Z,3.73
2019-02-09T03:07:36.015Z,1.60
2019-02-09T03:10:05.011Z,4.47
2019-02-09T03:12:33.562Z,2.53
2019-02-09T03:15:02.109Z,6.20
2019-02-09T03:17:30.736Z,5.83
2019-02-09T03:19:59.293Z,2.47
2019-02-09T03:22:27.878Z,3.33
2019-02-09T03:24:56.434Z,3.37
2019-02-09T03:27:24.966Z,2.47
2019-02-09T03:29:53.501Z,9.43
2019-02-09T03:32:22.050Z,4.70
2019-02-09T03:34:50.590Z,2.80
2019-02-09T03:37:19.129Z,9.40
2019-02-09T03:39:47.706Z,8.73
2019-02-09T03:42:16.246Z,5.27
2019-02-09T03:44:44.790Z,8.03
2019-02-09T03:47:13.349Z,7.07
2019-02-09T03:49:41.907Z,7.60
2019-02-09T03:52:10.445Z,5.43
2019-02-09T03:54:38.990Z,7.50
2019-02-09T03:57:07.535Z,11.77
2019-02-09T03:59:36.065Z,11.27
2019-02-09T04:02:04.630Z,7.73
2019-02-09T04:04:33.157Z,6.50
2019-02-09T04:07:01.707Z,8.93
2019-02-09T04:09:30.266Z,9.83
2019-02-09T04:11:58.870Z,10.07
2019-02-09T04:14:27.391Z,6.97
2019-02-09T04:16:55.954Z,11.37
2019-02-09T04:19:24.486Z,7.57
2019-02-09T04:21:53.018Z,6.30
2019-02-09T04:24:21.572Z,11.87
2019-02-09T04:26:50.129Z,10.93
2019-02-09T04:29:18.662Z,8.23
2019-02-09T04:31:47.210Z,9.13
2019-02-09T04:34:15.751Z,7.97
2019-02-09T04:36:44.318Z,6.73
2019-02-09T04:39:12.855Z,12.20
2019-02-09T04:41:41.402Z,8.67
2019-02-09T04:44:09.958Z,8.37
2019-02-09T04:46:38.504Z,8.77
2019-02-09T04:49:07.066Z,6.90
2019-02-09T04:51:35.613Z,13.00
2019-02-09T04:54:04.177Z,8.17
2019-02-09T04:56:32.717Z,11.40
2019-02-09T04:59:01.287Z,17.37
2019-02-09T05:01:31.506Z,11.77
2019-02-09T05:04:00.038Z,17.40
2019-02-09T05:06:28.609Z,9.07
2019-02-09T05:08:57.151Z,9.80
2019-02-09T05:11:25.757Z,11.27
2019-02-09T05:13:54.417Z,13.23
2019-02-09T05:16:22.956Z,11.40
2019-02-09T05:18:51.501Z,12.23
2019-02-09T05:21:20.062Z,9.27
2019-02-09T05:23:48.603Z,11.53
2019-02-09T05:26:17.145Z,11.30
2019-02-09T05:28:45.711Z,11.17
2019-02-09T05:31:22.678Z,8.83
2019-02-09T05:33:44.513Z,7.97
2019-02-09T05:36:13.066Z,9.80
2019-02-09T05:38:41.603Z,9.20
2019-02-09T05:41:10.140Z,7.43
2019-02-09T05:43:38.702Z,8.27
2019-02-09T05:46:07.250Z,7.73
2019-02-09T05:48:35.798Z,10.27
2019-02-09T05:51:04.355Z,13.20
2019-02-09T05:53:32.885Z,8.93
2019-02-09T05:56:01.419Z,10.37
2019-02-09T05:58:29.995Z,9.10
2019-02-09T06:00:58.531Z,13.60
2019-02-09T06:03:27.062Z,7.23
2019-02-09T06:05:55.618Z,7.63
2019-02-09T06:08:24.152Z,16.40
2019-02-09T06:10:52.680Z,6.73
2019-02-09T06:13:21.241Z,12.47
2019-02-09T06:15:50.126Z,8.93
2019-02-09T06:18:18.674Z,8.90
2019-02-09T06:20:47.229Z,8.83
2019-02-09T06:23:15.777Z,13.13
2019-02-09T06:25:44.325Z,10.70
2019-02-09T06:28:12.893Z,16.07
2019-02-09T06:30:41.431Z,11.60
2019-02-09T06:33:09.972Z,7.90
2019-02-09T06:35:38.523Z,12.07
2019-02-09T06:38:07.066Z,8.67
2019-02-09T06:40:35.589Z,15.17
2019-02-09T06:43:04.143Z,11.63
2019-02-09T06:45:32.670Z,15.03
2019-02-09T06:48:17.261Z,15.00
2019-02-09T06:50:45.801Z,9.63
2019-02-09T06:53:14.325Z,16.43
2019-02-09T06:55:42.897Z,16.00
2019-02-09T06:58:11.425Z,15.40
2019-02-09T07:00:39.993Z,11.67
2019-02-09T07:03:08.549Z,12.57
2019-02-09T07:05:37.093Z,10.77
2019-02-09T07:08:05.630Z,9.03
2019-02-09T07:10:34.196Z,14.50
2019-02-09T07:13:02.843Z,17.20
2019-02-09T07:15:31.496Z,10.87
2019-02-09T07:18:00.110Z,11.70
2019-02-09T07:20:28.666Z,10.20
2019-02-09T07:22:57.201Z,13.80
2019-02-09T07:25:25.773Z,12.17
2019-02-09T07:27:54.324Z,11.63
2019-02-09T07:30:23.886Z,15.33
2019-02-09T07:32:52.534Z,9.60
2019-02-09T07:35:21.093Z,9.73
2019-02-09T07:37:49.619Z,14.63
2019-02-09T07:40:18.393Z,18.00
2019-02-09T07:42:46.946Z,16.60
2019-02-09T07:45:16.322Z,13.27
2019-02-09T07:47:44.874Z,11.93
2019-02-09T07:50:14.047Z,20.43
2019-02-09T07:52:42.610Z,22.53
2019-02-09T07:55:12.037Z,11.50
2019-02-09T07:57:40.591Z,13.87
2019-02-09T08:00:14.178Z,12.50
2019-02-09T08:02:42.750Z,17.10
2019-02-09T08:05:11.289Z,17.67
2019-02-09T08:07:39.842Z,13.63
2019-02-09T08:10:09.982Z,20.27
2019-02-09T08:12:38.617Z,17.30
2019-02-09T08:15:08.426Z,15.83
2019-02-09T08:17:36.982Z,11.70
2019-02-09T08:20:05.917Z,17.27
2019-02-09T08:22:34.455Z,18.23
2019-02-09T08:25:02.977Z,22.20
2019-02-09T08:27:31.536Z,14.43
2019-02-09T08:30:00.093Z,11.20
2019-02-09T08:32:28.841Z,15.00
2019-02-09T08:34:57.378Z,16.17
2019-02-09T08:37:25.925Z,12.50
2019-02-09T08:39:54.491Z,17.73
2019-02-09T08:42:23.029Z,15.33
2019-02-09T08:44:51.661Z,13.47
2019-02-09T08:47:20.222Z,19.60
2019-02-09T08:49:48.818Z,15.30
2019-02-09T08:52:17.360Z,15.87
2019-02-09T08:54:45.918Z,8.20
2019-02-09T08:57:14.455Z,17.40
2019-02-09T08:59:43.276Z,14.50
2019-02-09T09:02:11.845Z,10.93
2019-02-09T09:04:40.379Z,13.40
2019-02-09T09:07:08.950Z,10.57
2019-02-09T09:09:37.522Z,14.40
2019-02-09T09:12:06.098Z,16.80
2019-02-09T09:14:34.649Z,21.13
2019-02-09T09:17:03.205Z,13.20
2019-02-09T09:19:31.781Z,17.50
2019-02-09T09:22:00.343Z,12.50
2019-02-09T09:24:28.885Z,16.57
2019-02-09T09:26:57.456Z,11.97
2019-02-09T09:32:48.675Z,15.77
2019-02-09T09:35:17.230Z,15.43
2019-02-09T09:37:45.765Z,15.60
2019-02-09T09:40:24.328Z,21.10
2019-02-09T09:42:52.951Z,11.53
2019-02-09T09:45:22.578Z,11.07
2019-02-09T09:47:51.140Z,15.53
2019-02-09T09:50:20.182Z,12.90
2019-02-09T09:52:48.710Z,11.73
2019-02-09T09:55:17.274Z,18.30
2019-02-09T09:57:45.822Z,22.70
2019-02-09T10:00:14.994Z,16.70
2019-02-09T10:02:43.553Z,12.90
2019-02-09T10:05:12.300Z,18.17
2019-02-09T10:07:40.833Z,12.93
2019-02-09T10:10:10.575Z,14.10
2019-02-09T10:12:39.158Z,12.03
2019-02-09T10:15:08.815Z,15.37
2019-02-09T10:17:37.417Z,14.67
2019-02-09T10:20:06.714Z,14.97
2019-02-09T10:22:35.271Z,15.07
2019-02-09T10:25:03.810Z,17.50
2019-02-09T10:27:32.339Z,23.63
2019-02-09T10:30:00.899Z,17.50
2019-02-09T10:32:29.429Z,14.93
2019-02-09T10:34:57.964Z,19.50
2019-02-09T10:37:26.525Z,9.53
2019-02-09T10:39:55.064Z,13.10
2019-02-09T10:42:23.605Z,8.47
2019-02-09T10:44:53.011Z,17.83
2019-02-09T10:47:21.554Z,16.03
2019-02-09T10:49:50.123Z,10.50
2019-02-09T10:52:19.143Z,10.80
2019-02-09T10:54:47.793Z,13.87
2019-02-09T10:57:16.334Z,12.17
2019-02-09T10:59:44.889Z,11.73
2019-02-09T11:02:13.426Z,19.00
2019-02-09T11:04:41.980Z,13.83
2019-02-09T11:07:10.565Z,11.33
2019-02-09T11:09:39.129Z,13.70
2019-02-09T11:12:07.682Z,11.27
2019-02-09T11:14:36.231Z,9.40
2019-02-09T11:17:04.790Z,14.63
2019-02-09T11:19:33.322Z,12.03
2019-02-09T11:22:01.882Z,14.90
2019-02-09T11:24:30.426Z,16.93
2019-02-09T11:26:59.011Z,15.53
2019-02-09T11:29:27.574Z,10.50
2019-02-09T11:31:56.127Z,9.23
2019-02-09T11:34:24.660Z,13.10
2019-02-09T11:36:53.211Z,8.93
2019-02-09T11:39:21.741Z,13.17
2019-02-09T11:41:50.341Z,13.67
2019-02-09T11:44:18.934Z,10.27
2019-02-09T11:46:47.521Z,9.20
2019-02-09T11:49:16.842Z,11.67
2019-02-09T11:51:45.541Z,6.53
2019-02-09T11:54:14.078Z,12.07
2019-02-09T11:56:42.646Z,7.07
2019-02-09T11:59:11.210Z,8.43
2019-02-09T12:01:39.750Z,10.50
2019-02-09T12:04:08.311Z,11.03
2019-02-09T12:06:36.878Z,7.30
2019-02-09T12:09:07.147Z,15.57
2019-02-09T12:11:35.701Z,12.87
2019-02-09T12:14:04.286Z,12.47
2019-02-09T12:16:32.865Z,8.10
2019-02-09T12:19:01.438Z,9.27
2019-02-09T12:21:29.974Z,12.23
2019-02-09T12:23:58.618Z,13.80
2019-02-09T12:26:27.185Z,7.07
2019-02-09T12:28:55.750Z,6.40
2019-02-09T12:31:24.310Z,5.83
2019-02-09T12:33:52.889Z,9.13
2019-02-09T12:36:21.436Z,10.93
2019-02-09T12:38:49.974Z,14.17
2019-02-09T12:41:18.529Z,13.67
2019-02-09T12:43:47.085Z,13.70
2019-02-09T12:46:15.630Z,14.10
2019-02-09T12:48:44.170Z,10.30
2019-02-09T12:51:12.738Z,13.90
2019-02-09T12:53:41.352Z,10.63
2019-02-09T12:56:09.917Z,14.37
2019-02-09T12:58:38.511Z,14.13
2019-02-09T13:01:07.037Z,10.13
2019-02-09T13:03:35.575Z,10.57
2019-02-09T13:06:04.126Z,14.53
2019-02-09T13:08:35.316Z,16.13
2019-02-09T13:11:03.978Z,14.77
2019-02-09T13:13:32.570Z,14.03
2019-02-09T13:16:01.145Z,15.93
2019-02-09T13:18:29.721Z,16.00
2019-02-09T13:20:58.270Z,13.97
2019-02-09T13:23:26.839Z,14.80
2019-02-09T13:25:55.369Z,14.87
2019-02-09T13:28:23.942Z,22.90
2019-02-09T13:30:52.478Z,16.67
2019-02-09T13:33:21.064Z,12.07
2019-02-09T13:35:49.663Z,18.83
2019-02-09T13:38:18.193Z,18.20
2019-02-09T13:40:46.726Z,17.83
2019-02-09T13:43:15.305Z,16.03
2019-02-09T13:45:45.390Z,12.93
2019-02-09T13:48:13.934Z,13.83
2019-02-09T13:50:42.526Z,12.73
2019-02-09T13:53:11.083Z,10.47
2019-02-09T13:55:39.641Z,13.70
2019-02-09T13:58:08.223Z,14.37
2019-02-09T14:00:36.746Z,14.20
2019-02-09T14:03:05.446Z,14.37
2019-02-09T14:05:34.006Z,12.93
2019-02-09T14:08:02.543Z,21.37
2019-02-09T14:10:31.064Z,12.17
2019-02-09T14:12:59.640Z,14.93
2019-02-09T14:15:29.261Z,14.10
2019-02-09T14:17:58.703Z,15.37
2019-02-09T14:20:27.269Z,12.57
2019-02-09T14:22:55.809Z,13.70
2019-02-09T14:25:24.350Z,10.67
2019-02-09T14:27:55.647Z,10.47
2019-02-09T14:30:24.819Z,11.10
2019-02-09T14:32:53.389Z,11.73
2019-02-09T14:35:22.011Z,12.60
2019-02-09T14:37:50.543Z,15.00
2019-02-09T14:40:22.868Z,14.30
2019-02-09T14:42:53.077Z,15.00
2019-02-09T14:45:25.330Z,14.17
2019-02-09T14:47:53.885Z,12.30
2019-02-09T14:50:22.426Z,9.37
2019-02-09T14:52:50.955Z,16.93
2019-02-09T14:55:20.924Z,14.97
2019-02-09T14:57:49.531Z,9.13
2019-02-09T15:00:19.181Z,24.13
2019-02-09T15:02:53.714Z,10.53
2019-02-09T15:05:18.002Z,16.27
2019-02-09T15:07:46.542Z,18.23
2019-02-09T15:10:15.864Z,14.07
2019-02-09T15:12:44.401Z,12.67
2019-02-09T15:15:20.662Z,9.93
2019-02-09T15:17:49.209Z,12.43
2019-02-09T15:20:18.881Z,17.03
2019-02-09T15:22:47.445Z,17.20
2019-02-09T15:25:15.983Z,12.43
2019-02-09T15:27:44.506Z,17.33
2019-02-09T15:30:14.880Z,20.13
2019-02-09T15:32:43.428Z,15.37
2019-02-09T15:35:12.329Z,13.27
2019-02-09T15:37:40.897Z,21.53
2019-02-09T15:40:10.741Z,18.07
2019-02-09T15:42:39.270Z,9.23
2019-02-09T15:45:08.519Z,13.87
2019-02-09T15:47:37.065Z,17.73
2019-02-09T15:50:05.677Z,14.50
2019-02-09T15:52:34.223Z,12.77
2019-02-09T15:55:02.767Z,17.27
2019-02-09T15:57:31.318Z,14.23
2019-02-09T15:59:59.841Z,11.53
2019-02-09T16:02:28.414Z,20.03
2019-02-09T16:04:56.970Z,18.97
2019-02-09T16:07:25.501Z,12.27
2019-02-09T16:09:54.057Z,17.57
2019-02-09T16:12:22.702Z,15.73
2019-02-09T16:14:51.234Z,11.40
2019-02-09T16:17:19.818Z,11.23
2019-02-09T16:19:48.385Z,14.90
2019-02-09T16:22:16.923Z,16.97
2019-02-09T16:24:45.463Z,16.00
2019-02-09T16:27:14.029Z,8.27
2019-02-09T16:29:42.566Z,12.90
2019-02-09T16:32:11.145Z,9.80
2019-02-09T16:34:39.734Z,18.37
2019-02-09T16:37:08.270Z,11.33
2019-02-09T16:39:36.812Z,14.07
2019-02-09T16:42:05.374Z,15.00
2019-02-09T16:44:33.909Z,17.03
2019-02-09T16:47:03.350Z,14.77
2019-02-09T16:49:31.913Z,14.20
2019-02-09T16:52:00.446Z,16.87
2019-02-09T16:54:28.981Z,21.57
2019-02-09T16:56:57.549Z,18.47
2019-02-09T16:59:26.086Z,17.07
2019-02-09T17:01:54.634Z,13.77
2019-02-09T17:04:23.177Z,16.97
2019-02-09T17:06:51.711Z,12.77
2019-02-09T17:09:20.267Z,11.40
2019-02-09T17:11:48.818Z,11.70
2019-02-09T17:14:17.407Z,23.80
2019-02-09T17:16:45.967Z,7.63
2019-02-09T17:19:14.546Z,14.23
2019-02-09T17:21:43.098Z,14.80
2019-02-09T17:24:11.650Z,16.30
2019-02-09T17:26:40.273Z,13.87
2019-02-09T17:29:08.822Z,16.57
2019-02-09T17:31:37.388Z,11.93
2019-02-09T17:34:05.939Z,18.93
2019-02-09T17:36:34.472Z,21.47
2019-02-09T17:39:03.769Z,22.50
2019-02-09T17:41:32.306Z,19.13
2019-02-09T17:44:00.862Z,15.50
2019-02-09T17:46:29.430Z,16.70
2019-02-09T17:48:57.976Z,17.50
2019-02-09T17:51:26.527Z,17.07
2019-02-09T17:53:55.077Z,17.47
2019-02-09T17:56:23.668Z,13.27
2019-02-09T17:58:52.210Z,20.67
2019-02-09T18:01:20.737Z,17.73
2019-02-09T18:03:49.301Z,14.23
2019-02-09T18:06:17.834Z,14.67
2019-02-09T18:08:46.450Z,15.13
2019-02-09T18:11:15.043Z,11.67
2019-02-09T18:13:43.582Z,15.53
2019-02-09T18:16:12.161Z,12.80
2019-02-09T18:18:40.708Z,16.83
2019-02-09T18:21:09.249Z,15.30
2019-02-09T18:23:37.799Z,17.00
2019-02-09T18:26:06.325Z,13.87
2019-02-09T18:28:34.877Z,19.83
2019-02-09T18:31:03.418Z,14.60
2019-02-09T18:33:31.968Z,13.17
2019-02-09T18:36:00.521Z,11.33
2019-02-09T18:38:29.086Z,15.33
2019-02-09T18:40:57.727Z,13.53
2019-02-09T18:43:26.263Z,11.73
2019-02-09T18:45:57.903Z,15.17
2019-02-09T18:48:25.121Z,13.83
2019-02-09T18:50:53.703Z,17.60
2019-02-09T18:53:22.267Z,10.43
2019-02-09T18:55:50.822Z,15.87
2019-02-09T18:58:19.830Z,19.03
2019-02-09T19:00:48.486Z,16.03
2019-02-09T19:03:17.063Z,12.37
2019-02-09T19:05:45.602Z,12.03
2019-02-09T19:08:14.150Z,16.90
2019-02-09T19:10:42.713Z,21.47
2019-02-09T19:13:11.240Z,12.17
2019-02-09T19:15:39.781Z,16.40
2019-02-09T19:18:08.377Z,13.90
2019-02-09T19:20:38.315Z,14.30
2019-02-09T19:23:06.875Z,14.13
2019-02-09T19:25:35.519Z,14.77
2019-02-09T19:28:04.454Z,16.17
2019-02-09T19:30:32.993Z,11.97
2019-02-09T19:33:01.553Z,12.20
2019-02-09T19:35:30.086Z,13.63
2019-02-09T19:37:58.612Z,19.53
2019-02-09T19:40:27.189Z,12.43
2019-02-09T19:42:55.722Z,11.50
2019-02-09T19:45:27.966Z,16.20
2019-02-09T19:47:56.550Z,12.60
2019-02-09T19:50:25.101Z,12.60
2019-02-09T19:52:53.654Z,14.20
2019-02-09T19:55:23.117Z,13.47
2019-02-09T19:57:51.770Z,14.03
2019-02-09T20:00:24.174Z,15.40
2019-02-09T20:02:52.717Z,16.83
2019-02-09T20:05:21.279Z,16.37
2019-02-09T20:07:49.827Z,19.77
2019-02-09T20:10:19.733Z,9.90
2019-02-09T20:12:48.290Z,11.27
2019-02-09T20:15:16.854Z,14.67
2019-02-09T20:17:45.409Z,14.83
2019-02-09T20:20:14.177Z,11.67
2019-02-09T20:22:42.742Z,16.77
2019-02-09T20:25:12.648Z,8.37
2019-02-09T20:27:41.199Z,13.73
2019-02-09T20:30:14.846Z,9.03
2019-02-09T20:32:43.389Z,15.17
2019-02-09T20:35:13.442Z,10.97
2019-02-09T20:37:42.179Z,18.70
2019-02-09T20:40:30.021Z,20.33
2019-02-09T20:43:02.290Z,21.50
2019-02-09T20:45:28.822Z,13.23
2019-02-09T20:47:57.397Z,11.70
2019-02-09T20:50:25.925Z,15.80
2019-02-09T20:52:54.479Z,8.37
2019-02-09T20:55:23.049Z,11.67
2019-02-09T20:57:51.625Z,12.43
2019-02-09T21:00:20.739Z,14.00
2019-02-09T21:02:49.265Z,17.70
2019-02-09T21:05:17.858Z,10.73
2019-02-09T21:07:46.417Z,18.23
2019-02-09T21:10:16.042Z,20.83
2019-02-09T21:12:44.601Z,12.73
2019-02-09T21:15:13.213Z,10.20
2019-02-09T21:17:41.772Z,11.97
2019-02-09T21:20:10.547Z,10.20
2019-02-09T21:22:39.138Z,12.37
2019-02-09T21:25:09.236Z,11.20
2019-02-09T21:27:37.802Z,13.90
2019-02-09T21:30:06.374Z,14.37
2019-02-09T21:32:40.211Z,12.37
2019-02-09T21:35:05.782Z,10.67
2019-02-09T21:37:34.317Z,19.33
2019-02-09T21:40:02.858Z,15.10
2019-02-09T21:42:31.416Z,12.03
2019-02-09T21:44:59.941Z,19.90
2019-02-09T21:47:28.486Z,12.73
2019-02-09T21:49:57.049Z,11.97
2019-02-09T21:52:25.606Z,8.33
2019-02-09T21:54:54.150Z,16.17
2019-02-09T21:57:22.706Z,15.10
2019-02-09T21:59:51.297Z,15.60
2019-02-09T22:02:19.869Z,19.07
2019-02-09T22:04:48.429Z,12.97
2019-02-09T22:07:17.006Z,8.77
2019-02-09T22:09:45.549Z,12.93
2019-02-09T22:12:14.209Z,11.83
2019-02-09T22:14:42.849Z,8.37
2019-02-09T22:17:11.626Z,10.00
2019-02-09T22:19:59.449Z,10.30
2019-02-09T22:22:28.025Z,10.47
2019-02-09T22:24:56.917Z,14.97
2019-02-09T22:27:25.730Z,8.83
2019-02-09T22:29:54.327Z,12.63
2019-02-09T22:32:22.886Z,12.27
2019-02-09T22:34:51.447Z,10.80
2019-02-09T22:37:19.994Z,7.17
2019-02-09T22:39:48.685Z,9.53
2019-02-09T22:42:17.246Z,10.90
2019-02-09T22:44:45.789Z,11.97
2019-02-09T22:47:14.357Z,7.13
2019-02-09T22:49:42.920Z,8.90
2019-02-09T22:52:11.446Z,8.57
2019-02-09T22:54:40.026Z,11.13
2019-02-09T22:57:08.614Z,6.43
2019-02-09T22:59:37.143Z,7.33
2019-02-09T23:02:05.802Z,12.23
2019-02-09T23:04:40.341Z,11.47
2019-02-09T23:07:10.275Z,10.43
2019-02-09T23:09:38.818Z,14.83
2019-02-09T23:12:07.428Z,10.13
2019-02-09T23:14:35.993Z,11.93
2019-02-09T23:17:04.537Z,13.10
2019-02-09T23:19:33.103Z,11.87
2019-02-09T23:22:01.703Z,8.73
2019-02-09T23:24:30.397Z,10.20
2019-02-09T23:26:58.958Z,7.87
2019-02-09T23:29:27.517Z,15.30
2019-02-09T23:31:56.056Z,12.53
2019-02-09T23:34:24.609Z,13.30
2019-02-09T23:36:53.153Z,10.57
2019-02-09T23:39:21.700Z,11.47
2019-02-09T23:41:50.269Z,7.77
2019-02-09T23:44:18.814Z,9.47
2019-02-09T23:46:47.337Z,9.00
2019-02-09T23:49:15.898Z,10.23
2019-02-09T23:51:44.435Z,8.80
2019-02-09T23:54:12.981Z,15.63
2019-02-09T23:56:41.545Z,7.20
2019-02-09T23:59:10.082Z,13.10
